Maitland, Missouri
Current Conditions -  °F | °C
As of 5:53 AM on Tuesday 27 Jan 2015 (Local Time) from KFNB Reporting Station
Clear Clear  
Wind Chill: 26°   Ceiling: Unl
Heat Index: 26°   Visibility: 10mi
Dew Point: 24°   Wind: 3mph
Humidity: 92%   Direction: 310°NW
Pressure: 30.1"   Gusts: NA
Location:  40.2°N, 95.07°W
Report Text: KFNB 271153Z AUTO 31003KT 10SM CLR M03/M04 A3010 RMK AO2 SLP200 T10331044 10022 21033 53006
Loading
Personal Weather Stations






























Interactive Weather Map New forecast layout! Learn more

10-Day Weather Forecast

Advertisements
Track Severe Weather on mobile